Aérodrome :
LOGIN :

S'inscrire | Disclaimer

   EN    FR    IT 

 










Légende :    VFR   VFR Marginal   IFR   IFR Intensif   IFR Très Intensif
Visi : 
Plafond : 
>= 8 km
>= 3000ft
5 à 8 km
1000 à 3000 ft
1500m à 5 km
500 à 1000 ft
800 à 1500m
200 à 500 ft
< 800m
< 200 ft
Symboles :   Orages  Brouillard  Fortes neiges  Fortes précipitations  Vent > 20 kt
SIGMETs :   Divers  Orages  Givrage  Turbulence  Onde Orograph.  Cendres Volcan.







- Altitude de l'aérodrome : 433 ft
- Voir les cartes d'approche


LFOC - Chateaudun

DERNIER METAR :
  • 170830Z AUTO 03008KT 9999 BKN012 OVC049 19/15 Q1022 BECMG BKN025

METARs EXPIRÉS :
  • 170800Z AUTO 03008KT 9999 OVC009 17/15 Q1022 BECMG BKN025
  • 170730Z AUTO 02008KT 9999 OVC007 16/15 Q1022 BECMG BKN025
  • 170700Z AUTO 02008KT 9999 OVC006 16/15 Q1022 BECMG BKN025
  • 170630Z AUTO 02009KT 7000 OVC006 16/15 Q1021 BECMG BKN025
  • 170600Z AUTO 01007KT 6000 OVC006 16/15 Q1021 TEMPO 4000 BR BECMG BKN010

TAF TAF LFOC
Valide du 17 à 09h jusqu'au 18 à 09h UTC


170800Z 1709/1809 03010KT 9999 BKN010
BECMG 1709/1711 BKN025
Pas de NOTAMs connus pour ce terrain.



MET'MAP, la Météo Aéronautique d'un coup d'oeil ! - Copyright ORBIFLY Décembre 2007 - Disclaimer

ORBIFLY MET'MAP TEAM :

Programmation & Développement : Alexandra Zaïnal
Conception & Développement : Baudouin d'Aumeries
Co-Programmation & Développement : Marc-Olivier Méhu
Soutien technique & logistique : Manuel Goepfert

Contact : metmap@orbifly.com




SOURCES & CREDITS :

   NOAA